sensor_id;sensor_type;location;lat;lon;timestamp;pressure;altitude;pressure_sealevel;temperature;humidity
12215;BME280;6170;42.206;24.142;2023-03-31T00:02:00;98914.72;;;8.76;58.53
12215;BME280;6170;42.206;24.142;2023-03-31T00:04:27;98910.00;;;8.78;58.64
12215;BME280;6170;42.206;24.142;2023-03-31T00:06:56;98915.28;;;8.71;59.01
12215;BME280;6170;42.206;24.142;2023-03-31T00:09:25;98907.00;;;8.66;58.98
12215;BME280;6170;42.206;24.142;2023-03-31T00:11:54;98911.22;;;8.61;59.80
12215;BME280;6170;42.206;24.142;2023-03-31T00:14:21;98901.38;;;8.46;59.55
12215;BME280;6170;42.206;24.142;2023-03-31T00:16:48;98945.09;;;8.75;60.09
12215;BME280;6170;42.206;24.142;2023-03-31T00:19:16;98958.47;;;8.75;59.95
12215;BME280;6170;42.206;24.142;2023-03-31T00:21:47;98911.06;;;8.33;60.18
12215;BME280;6170;42.206;24.142;2023-03-31T00:24:16;98907.81;;;8.08;60.77
12215;BME280;6170;42.206;24.142;2023-03-31T00:26:45;98894.56;;;8.00;60.35
12215;BME280;6170;42.206;24.142;2023-03-31T00:29:12;98904.28;;;7.93;60.88
12215;BME280;6170;42.206;24.142;2023-03-31T00:31:40;98907.16;;;7.91;61.47
12215;BME280;6170;42.206;24.142;2023-03-31T00:34:07;98902.66;;;7.92;60.77
12215;BME280;6170;42.206;24.142;2023-03-31T00:36:34;98894.63;;;7.77;61.18
12215;BME280;6170;42.206;24.142;2023-03-31T00:39:12;98896.94;;;7.95;60.86
12215;BME280;6170;42.206;24.142;2023-03-31T00:41:40;98891.34;;;7.90;61.22
12215;BME280;6170;42.206;24.142;2023-03-31T00:44:12;98886.53;;;7.85;61.01
12215;BME280;6170;42.206;24.142;2023-03-31T00:46:44;98890.38;;;7.68;60.87
12215;BME280;6170;42.206;24.142;2023-03-31T00:49:20;98929.06;;;7.87;61.53
12215;BME280;6170;42.206;24.142;2023-03-31T00:51:50;98864.44;;;7.25;62.12
12215;BME280;6170;42.206;24.142;2023-03-31T00:54:20;98884.88;;;7.32;62.24
12215;BME280;6170;42.206;24.142;2023-03-31T00:56:51;98909.97;;;7.60;62.81
12215;BME280;6170;42.206;24.142;2023-03-31T00:59:24;98851.81;;;7.18;61.70
12215;BME280;6170;42.206;24.142;2023-03-31T01:01:55;98871.25;;;7.27;62.44
12215;BME280;6170;42.206;24.142;2023-03-31T01:04:31;98867.66;;;7.20;61.81
12215;BME280;6170;42.206;24.142;2023-03-31T01:07:04;98858.66;;;7.21;61.04
12215;BME280;6170;42.206;24.142;2023-03-31T01:09:34;98859.09;;;6.79;63.44
12215;BME280;6170;42.206;24.142;2023-03-31T01:12:06;98857.03;;;6.66;64.15
12215;BME280;6170;42.206;24.142;2023-03-31T01:14:35;98837.84;;;6.48;65.05
12215;BME280;6170;42.206;24.142;2023-03-31T01:17:02;98848.63;;;6.24;66.49
12215;BME280;6170;42.206;24.142;2023-03-31T01:19:41;98863.44;;;6.18;66.68
12215;BME280;6170;42.206;24.142;2023-03-31T01:25:51;98865.69;;;6.29;66.40
12215;BME280;6170;42.206;24.142;2023-03-31T01:28:32;98859.31;;;6.08;66.98
12215;BME280;6170;42.206;24.142;2023-03-31T01:34:34;98844.34;;;6.07;67.75
12215;BME280;6170;42.206;24.142;2023-03-31T01:40:49;98842.41;;;6.31;67.20
12215;BME280;6170;42.206;24.142;2023-03-31T01:43:22;98838.50;;;6.50;66.29
12215;BME280;6170;42.206;24.142;2023-03-31T01:45:56;98830.25;;;6.60;66.48
12215;BME280;6170;42.206;24.142;2023-03-31T01:48:34;98836.19;;;6.70;66.41
12215;BME280;6170;42.206;24.142;2023-03-31T01:51:08;98839.78;;;6.85;65.58
12215;BME280;6170;42.206;24.142;2023-03-31T01:53:44;98829.72;;;6.72;65.38
12215;BME280;6170;42.206;24.142;2023-03-31T01:56:20;98838.28;;;6.83;65.49
12215;BME280;6170;42.206;24.142;2023-03-31T01:58:52;98824.50;;;6.79;65.72
12215;BME280;6170;42.206;24.142;2023-03-31T02:01:27;98877.25;;;7.29;65.31
12215;BME280;6170;42.206;24.142;2023-03-31T02:03:57;98848.03;;;7.13;65.10
12215;BME280;6170;42.206;24.142;2023-03-31T02:06:29;98832.31;;;7.03;64.77
12215;BME280;6170;42.206;24.142;2023-03-31T02:09:02;98806.78;;;6.86;64.86
12215;BME280;6170;42.206;24.142;2023-03-31T02:11:33;98832.66;;;6.77;65.60
12215;BME280;6170;42.206;24.142;2023-03-31T02:14:03;98833.69;;;6.76;65.64
12215;BME280;6170;42.206;24.142;2023-03-31T02:16:36;98839.56;;;7.09;64.54
12215;BME280;6170;42.206;24.142;2023-03-31T02:19:07;98848.00;;;6.98;65.03
12215;BME280;6170;42.206;24.142;2023-03-31T02:21:39;98828.84;;;7.17;63.93
12215;BME280;6170;42.206;24.142;2023-03-31T02:24:10;98834.75;;;7.28;64.02
12215;BME280;6170;42.206;24.142;2023-03-31T02:26:42;98803.97;;;7.25;63.50
12215;BME280;6170;42.206;24.142;2023-03-31T02:29:11;98837.94;;;7.46;63.46
12215;BME280;6170;42.206;24.142;2023-03-31T02:31:43;98834.06;;;7.34;64.63
12215;BME280;6170;42.206;24.142;2023-03-31T02:34:12;98829.91;;;7.08;64.85
12215;BME280;6170;42.206;24.142;2023-03-31T02:36:41;98828.00;;;7.17;64.75
12215;BME280;6170;42.206;24.142;2023-03-31T02:39:12;98824.22;;;7.49;64.18
12215;BME280;6170;42.206;24.142;2023-03-31T02:41:42;98826.47;;;7.75;63.44
12215;BME280;6170;42.206;24.142;2023-03-31T02:44:10;98833.28;;;7.92;63.27
12215;BME280;6170;42.206;24.142;2023-03-31T02:46:38;98829.59;;;7.93;62.67
12215;BME280;6170;42.206;24.142;2023-03-31T02:49:08;98830.91;;;7.82;61.67
12215;BME280;6170;42.206;24.142;2023-03-31T02:54:39;98806.16;;;7.74;62.15
12215;BME280;6170;42.206;24.142;2023-03-31T02:57:33;98853.41;;;7.80;63.57
12215;BME280;6170;42.206;24.142;2023-03-31T03:00:10;98847.13;;;7.58;64.30
12215;BME280;6170;42.206;24.142;2023-03-31T03:02:50;98851.81;;;7.41;65.07
12215;BME280;6170;42.206;24.142;2023-03-31T03:05:28;98854.91;;;7.82;63.74
12215;BME280;6170;42.206;24.142;2023-03-31T03:08:07;98845.00;;;7.39;64.81
12215;BME280;6170;42.206;24.142;2023-03-31T03:10:48;98860.88;;;7.70;64.11
12215;BME280;6170;42.206;24.142;2023-03-31T03:13:27;98861.81;;;7.39;65.34
12215;BME280;6170;42.206;24.142;2023-03-31T03:16:00;98869.13;;;7.60;65.11
12215;BME280;6170;42.206;24.142;2023-03-31T03:18:29;98900.78;;;7.78;64.91
12215;BME280;6170;42.206;24.142;2023-03-31T03:20:57;98847.78;;;7.60;65.02
12215;BME280;6170;42.206;24.142;2023-03-31T03:23:24;98866.22;;;7.99;63.94
12215;BME280;6170;42.206;24.142;2023-03-31T03:25:51;98855.28;;;8.08;63.29
12215;BME280;6170;42.206;24.142;2023-03-31T03:28:18;98872.28;;;7.93;63.90
12215;BME280;6170;42.206;24.142;2023-03-31T03:30:46;98863.63;;;8.20;64.09
12215;BME280;6170;42.206;24.142;2023-03-31T03:33:13;98879.28;;;8.23;62.88
12215;BME280;6170;42.206;24.142;2023-03-31T03:35:41;98880.19;;;8.16;63.68
12215;BME280;6170;42.206;24.142;2023-03-31T03:38:09;98871.75;;;8.12;62.91
12215;BME280;6170;42.206;24.142;2023-03-31T03:40:36;98868.53;;;8.17;63.25
12215;BME280;6170;42.206;24.142;2023-03-31T03:43:03;98855.72;;;8.41;62.88
12215;BME280;6170;42.206;24.142;2023-03-31T03:45:30;98899.16;;;8.50;63.22
12215;BME280;6170;42.206;24.142;2023-03-31T03:47:58;98905.00;;;8.39;65.06
12215;BME280;6170;42.206;24.142;2023-03-31T03:50:25;98847.06;;;8.25;64.20
12215;BME280;6170;42.206;24.142;2023-03-31T03:52:52;98841.03;;;8.31;64.22
12215;BME280;6170;42.206;24.142;2023-03-31T03:55:19;98840.34;;;8.29;65.14
12215;BME280;6170;42.206;24.142;2023-03-31T03:57:47;98846.16;;;8.03;66.43
12215;BME280;6170;42.206;24.142;2023-03-31T04:00:14;98846.16;;;7.88;66.48
12215;BME280;6170;42.206;24.142;2023-03-31T04:02:41;98848.28;;;7.93;67.35
12215;BME280;6170;42.206;24.142;2023-03-31T04:05:10;98827.28;;;7.75;67.75
12215;BME280;6170;42.206;24.142;2023-03-31T04:07:37;98827.16;;;7.39;69.44
12215;BME280;6170;42.206;24.142;2023-03-31T04:10:05;98887.19;;;7.73;69.60
12215;BME280;6170;42.206;24.142;2023-03-31T04:12:33;98873.88;;;7.87;68.08
12215;BME280;6170;42.206;24.142;2023-03-31T04:15:00;98822.31;;;7.57;69.18
12215;BME280;6170;42.206;24.142;2023-03-31T04:17:27;98820.94;;;7.61;69.75
12215;BME280;6170;42.206;24.142;2023-03-31T04:19:59;98830.78;;;7.76;70.20
12215;BME280;6170;42.206;24.142;2023-03-31T04:22:32;98821.97;;;7.60;71.45
12215;BME280;6170;42.206;24.142;2023-03-31T04:25:06;98817.28;;;7.48;71.29
12215;BME280;6170;42.206;24.142;2023-03-31T04:27:39;98827.84;;;7.71;71.09
12215;BME280;6170;42.206;24.142;2023-03-31T04:30:12;98822.88;;;7.97;69.54
12215;BME280;6170;42.206;24.142;2023-03-31T04:32:47;98813.75;;;8.06;69.75
12215;BME280;6170;42.206;24.142;2023-03-31T04:35:15;98809.69;;;8.10;69.01
12215;BME280;6170;42.206;24.142;2023-03-31T04:37:43;98799.97;;;8.17;69.12
12215;BME280;6170;42.206;24.142;2023-03-31T04:40:11;98787.50;;;8.24;69.41
12215;BME280;6170;42.206;24.142;2023-03-31T04:42:38;98791.31;;;8.30;69.66
12215;BME280;6170;42.206;24.142;2023-03-31T04:45:06;98796.25;;;8.47;68.69
12215;BME280;6170;42.206;24.142;2023-03-31T04:47:33;98776.63;;;7.90;70.36
12215;BME280;6170;42.206;24.142;2023-03-31T04:50:00;98803.66;;;8.01;70.41
12215;BME280;6170;42.206;24.142;2023-03-31T04:52:27;98799.53;;;7.99;71.10
12215;BME280;6170;42.206;24.142;2023-03-31T04:54:56;98796.63;;;8.15;70.63
12215;BME280;6170;42.206;24.142;2023-03-31T04:57:23;98790.00;;;8.26;70.09
12215;BME280;6170;42.206;24.142;2023-03-31T04:59:50;98832.34;;;8.43;69.61
12215;BME280;6170;42.206;24.142;2023-03-31T05:02:17;98775.78;;;8.04;71.05
12215;BME280;6170;42.206;24.142;2023-03-31T05:04:48;98793.97;;;8.15;70.16
12215;BME280;6170;42.206;24.142;2023-03-31T05:07:16;98797.47;;;8.30;69.44
12215;BME280;6170;42.206;24.142;2023-03-31T05:09:43;98790.91;;;8.47;68.51
12215;BME280;6170;42.206;24.142;2023-03-31T05:12:12;98783.06;;;8.46;68.93
12215;BME280;6170;42.206;24.142;2023-03-31T05:14:40;98787.13;;;8.42;68.05
12215;BME280;6170;42.206;24.142;2023-03-31T05:17:07;98785.22;;;8.72;67.41
12215;BME280;6170;42.206;24.142;2023-03-31T05:19:34;98758.16;;;8.60;66.56
12215;BME280;6170;42.206;24.142;2023-03-31T05:22:01;98771.94;;;8.28;70.09
12215;BME280;6170;42.206;24.142;2023-03-31T05:24:28;98775.88;;;7.96;71.35
12215;BME280;6170;42.206;24.142;2023-03-31T05:26:55;98778.72;;;8.09;70.97
12215;BME280;6170;42.206;24.142;2023-03-31T05:29:25;98767.44;;;8.28;69.87
12215;BME280;6170;42.206;24.142;2023-03-31T05:31:52;98767.56;;;8.35;69.17
12215;BME280;6170;42.206;24.142;2023-03-31T05:34:19;98767.69;;;8.48;69.66
12215;BME280;6170;42.206;24.142;2023-03-31T05:36:46;98781.38;;;8.81;69.82
12215;BME280;6170;42.206;24.142;2023-03-31T05:39:15;98759.66;;;8.63;68.72
12215;BME280;6170;42.206;24.142;2023-03-31T05:41:43;98760.09;;;8.66;69.50
12215;BME280;6170;42.206;24.142;2023-03-31T05:44:10;98749.00;;;8.69;68.88
12215;BME280;6170;42.206;24.142;2023-03-31T05:46:38;98803.94;;;9.21;66.26
12215;BME280;6170;42.206;24.142;2023-03-31T05:49:05;98814.97;;;9.60;67.04
12215;BME280;6170;42.206;24.142;2023-03-31T05:51:33;98775.56;;;9.20;67.95
12215;BME280;6170;42.206;24.142;2023-03-31T05:54:00;98767.41;;;9.28;69.08
12215;BME280;6170;42.206;24.142;2023-03-31T05:56:27;98759.41;;;9.34;68.58
12215;BME280;6170;42.206;24.142;2023-03-31T05:58:54;98747.97;;;9.47;68.33
12215;BME280;6170;42.206;24.142;2023-03-31T06:01:21;98744.94;;;9.50;68.45
12215;BME280;6170;42.206;24.142;2023-03-31T06:03:50;98761.97;;;9.77;68.94
12215;BME280;6170;42.206;24.142;2023-03-31T06:06:18;98736.25;;;9.48;67.08
12215;BME280;6170;42.206;24.142;2023-03-31T06:08:46;98733.72;;;10.09;66.72
12215;BME280;6170;42.206;24.142;2023-03-31T06:11:15;98731.94;;;10.29;66.44
12215;BME280;6170;42.206;24.142;2023-03-31T06:13:44;98771.41;;;10.81;67.27
12215;BME280;6170;42.206;24.142;2023-03-31T06:16:12;98729.16;;;10.83;65.75
12215;BME280;6170;42.206;24.142;2023-03-31T06:18:40;98703.94;;;10.45;61.82
12215;BME280;6170;42.206;24.142;2023-03-31T06:21:10;98716.97;;;10.94;58.95
12215;BME280;6170;42.206;24.142;2023-03-31T06:23:38;98714.09;;;10.95;60.69
12215;BME280;6170;42.206;24.142;2023-03-31T06:26:06;98739.84;;;11.42;59.51
12215;BME280;6170;42.206;24.142;2023-03-31T06:28:34;98713.28;;;10.95;58.82
12215;BME280;6170;42.206;24.142;2023-03-31T06:31:03;98711.63;;;10.94;62.26
12215;BME280;6170;42.206;24.142;2023-03-31T06:33:31;98717.19;;;11.18;62.86
12215;BME280;6170;42.206;24.142;2023-03-31T06:35:58;98682.13;;;11.13;60.63
12215;BME280;6170;42.206;24.142;2023-03-31T06:38:27;98725.13;;;11.84;61.57
12215;BME280;6170;42.206;24.142;2023-03-31T06:40:54;98719.78;;;11.84;62.48
12215;BME280;6170;42.206;24.142;2023-03-31T06:43:21;98714.59;;;12.34;62.09
12215;BME280;6170;42.206;24.142;2023-03-31T06:45:49;98720.28;;;12.12;60.63
12215;BME280;6170;42.206;24.142;2023-03-31T06:48:16;98719.00;;;12.53;61.37
12215;BME280;6170;42.206;24.142;2023-03-31T06:50:43;98755.91;;;12.71;60.66
12215;BME280;6170;42.206;24.142;2023-03-31T06:53:10;98715.81;;;12.38;59.01
12215;BME280;6170;42.206;24.142;2023-03-31T06:55:39;98719.44;;;13.13;59.78
12215;BME280;6170;42.206;24.142;2023-03-31T06:58:06;98713.97;;;13.44;59.04
12215;BME280;6170;42.206;24.142;2023-03-31T07:00:33;98711.44;;;14.04;59.35
12215;BME280;6170;42.206;24.142;2023-03-31T07:03:00;98704.03;;;14.77;57.13
12215;BME280;6170;42.206;24.142;2023-03-31T07:05:28;98701.81;;;16.02;55.23
12215;BME280;6170;42.206;24.142;2023-03-31T07:07:58;98701.06;;;16.18;53.58
12215;BME280;6170;42.206;24.142;2023-03-31T07:10:26;98697.13;;;15.97;53.44
12215;BME280;6170;42.206;24.142;2023-03-31T07:12:55;98688.31;;;16.30;53.67
12215;BME280;6170;42.206;24.142;2023-03-31T07:15:23;98670.13;;;15.86;55.58
12215;BME280;6170;42.206;24.142;2023-03-31T07:17:50;98713.06;;;16.79;54.10
12215;BME280;6170;42.206;24.142;2023-03-31T07:20:27;98706.81;;;16.50;53.11
12215;BME280;6170;42.206;24.142;2023-03-31T07:22:55;98726.97;;;16.71;52.84
12215;BME280;6170;42.206;24.142;2023-03-31T07:25:23;98691.06;;;16.47;52.76
12215;BME280;6170;42.206;24.142;2023-03-31T07:27:50;98684.84;;;16.91;53.32
12215;BME280;6170;42.206;24.142;2023-03-31T07:30:19;98696.50;;;17.25;52.57
12215;BME280;6170;42.206;24.142;2023-03-31T07:32:47;98694.38;;;17.61;51.18
12215;BME280;6170;42.206;24.142;2023-03-31T07:35:15;98693.84;;;17.64;51.22
12215;BME280;6170;42.206;24.142;2023-03-31T07:37:43;98680.13;;;18.14;52.49
12215;BME280;6170;42.206;24.142;2023-03-31T07:40:12;98679.81;;;17.88;48.32
12215;BME280;6170;42.206;24.142;2023-03-31T07:42:41;98677.09;;;17.67;48.39
12215;BME280;6170;42.206;24.142;2023-03-31T07:45:09;98660.34;;;17.53;49.65
12215;BME280;6170;42.206;24.142;2023-03-31T07:47:38;98662.41;;;17.08;51.32
12215;BME280;6170;42.206;24.142;2023-03-31T07:50:07;98636.47;;;16.95;49.37
12215;BME280;6170;42.206;24.142;2023-03-31T07:52:34;98603.19;;;17.33;50.73
12215;BME280;6170;42.206;24.142;2023-03-31T07:55:01;98610.59;;;17.21;51.17
12215;BME280;6170;42.206;24.142;2023-03-31T07:57:29;98644.28;;;17.46;48.77
12215;BME280;6170;42.206;24.142;2023-03-31T07:59:56;98632.19;;;17.54;48.63
12215;BME280;6170;42.206;24.142;2023-03-31T08:02:23;98626.94;;;17.86;48.19
12215;BME280;6170;42.206;24.142;2023-03-31T08:04:51;98635.22;;;18.50;48.65
12215;BME280;6170;42.206;24.142;2023-03-31T08:07:18;98602.03;;;18.42;48.61
12215;BME280;6170;42.206;24.142;2023-03-31T08:09:46;98621.22;;;18.95;48.60
12215;BME280;6170;42.206;24.142;2023-03-31T08:12:14;98614.91;;;19.16;46.91
12215;BME280;6170;42.206;24.142;2023-03-31T08:14:41;98605.91;;;19.57;44.93
12215;BME280;6170;42.206;24.142;2023-03-31T08:17:08;98638.22;;;20.16;48.71
12215;BME280;6170;42.206;24.142;2023-03-31T08:19:35;98601.03;;;20.42;44.78
12215;BME280;6170;42.206;24.142;2023-03-31T08:22:04;98586.19;;;19.92;47.12
12215;BME280;6170;42.206;24.142;2023-03-31T08:24:31;98594.44;;;20.28;46.07
12215;BME280;6170;42.206;24.142;2023-03-31T08:26:58;98574.38;;;20.39;45.42
12215;BME280;6170;42.206;24.142;2023-03-31T08:29:25;98610.34;;;19.73;45.11
12215;BME280;6170;42.206;24.142;2023-03-31T08:31:53;98581.56;;;19.88;46.69
12215;BME280;6170;42.206;24.142;2023-03-31T08:34:20;98578.16;;;20.38;45.04
12215;BME280;6170;42.206;24.142;2023-03-31T08:36:47;98577.34;;;20.42;46.60
12215;BME280;6170;42.206;24.142;2023-03-31T08:39:16;98563.31;;;19.83;45.12
12215;BME280;6170;42.206;24.142;2023-03-31T08:41:53;98541.25;;;19.64;46.77
12215;BME280;6170;42.206;24.142;2023-03-31T08:44:29;98549.22;;;19.86;47.16
12215;BME280;6170;42.206;24.142;2023-03-31T08:47:00;98544.59;;;19.87;46.14
12215;BME280;6170;42.206;24.142;2023-03-31T08:49:32;98541.63;;;19.98;45.93
12215;BME280;6170;42.206;24.142;2023-03-31T08:52:06;98523.53;;;19.52;45.29
12215;BME280;6170;42.206;24.142;2023-03-31T08:54:41;98528.56;;;20.00;45.01
12215;BME280;6170;42.206;24.142;2023-03-31T08:57:11;98558.03;;;20.84;45.00
12215;BME280;6170;42.206;24.142;2023-03-31T08:59:40;98512.56;;;20.29;43.52
12215;BME280;6170;42.206;24.142;2023-03-31T09:02:15;98504.59;;;21.14;43.18
12215;BME280;6170;42.206;24.142;2023-03-31T09:05:10;98523.72;;;20.83;45.86
12215;BME280;6170;42.206;24.142;2023-03-31T09:07:49;98505.41;;;21.04;46.21
12215;BME280;6170;42.206;24.142;2023-03-31T09:10:34;98494.88;;;20.32;44.05
12215;BME280;6170;42.206;24.142;2023-03-31T09:13:13;98475.03;;;20.51;43.47
12215;BME280;6170;42.206;24.142;2023-03-31T09:15:47;98474.38;;;20.95;45.02
12215;BME280;6170;42.206;24.142;2023-03-31T09:18:24;98469.19;;;21.14;44.17
12215;BME280;6170;42.206;24.142;2023-03-31T09:20:58;98462.75;;;21.48;43.03
12215;BME280;6170;42.206;24.142;2023-03-31T09:23:31;98462.34;;;21.11;43.50
12215;BME280;6170;42.206;24.142;2023-03-31T09:26:02;98466.38;;;21.34;42.80
12215;BME280;6170;42.206;24.142;2023-03-31T09:28:34;98462.78;;;21.92;42.84
12215;BME280;6170;42.206;24.142;2023-03-31T09:31:07;98462.09;;;21.72;44.05
12215;BME280;6170;42.206;24.142;2023-03-31T09:33:42;98452.97;;;21.86;44.35
12215;BME280;6170;42.206;24.142;2023-03-31T09:36:14;98447.38;;;21.08;42.57
12215;BME280;6170;42.206;24.142;2023-03-31T09:38:44;98461.56;;;21.11;43.75
12215;BME280;6170;42.206;24.142;2023-03-31T09:41:15;98406.34;;;21.44;43.15
12215;BME280;6170;42.206;24.142;2023-03-31T09:43:43;98431.06;;;21.63;42.92
12215;BME280;6170;42.206;24.142;2023-03-31T09:46:16;98420.03;;;21.34;41.98
12215;BME280;6170;42.206;24.142;2023-03-31T09:48:51;98404.91;;;21.02;42.56
12215;BME280;6170;42.206;24.142;2023-03-31T09:51:24;98417.50;;;20.88;41.56
12215;BME280;6170;42.206;24.142;2023-03-31T09:53:54;98419.03;;;21.20;42.51
12215;BME280;6170;42.206;24.142;2023-03-31T09:56:34;98410.94;;;20.94;45.80
12215;BME280;6170;42.206;24.142;2023-03-31T09:59:14;98409.38;;;20.73;43.38
12215;BME280;6170;42.206;24.142;2023-03-31T10:01:43;98413.19;;;20.67;44.59
12215;BME280;6170;42.206;24.142;2023-03-31T10:04:19;98402.09;;;21.28;45.17
12215;BME280;6170;42.206;24.142;2023-03-31T10:06:47;98398.84;;;21.21;43.64
12215;BME280;6170;42.206;24.142;2023-03-31T10:09:15;98405.50;;;20.89;42.72
12215;BME280;6170;42.206;24.142;2023-03-31T10:11:57;98395.41;;;20.90;42.60
12215;BME280;6170;42.206;24.142;2023-03-31T10:14:31;98415.88;;;20.77;42.87
12215;BME280;6170;42.206;24.142;2023-03-31T10:17:03;98393.84;;;20.74;43.61
12215;BME280;6170;42.206;24.142;2023-03-31T10:19:33;98383.75;;;20.84;43.84
12215;BME280;6170;42.206;24.142;2023-03-31T10:22:03;98386.50;;;20.74;43.73
12215;BME280;6170;42.206;24.142;2023-03-31T10:24:38;98391.09;;;21.82;43.74
12215;BME280;6170;42.206;24.142;2023-03-31T10:27:18;98376.13;;;22.42;41.40
12215;BME280;6170;42.206;24.142;2023-03-31T10:29:47;98384.28;;;22.18;42.25
12215;BME280;6170;42.206;24.142;2023-03-31T10:32:21;98337.59;;;22.20;42.35
12215;BME280;6170;42.206;24.142;2023-03-31T10:34:50;98362.50;;;22.13;45.32
12215;BME280;6170;42.206;24.142;2023-03-31T10:37:21;98369.13;;;22.07;43.44
12215;BME280;6170;42.206;24.142;2023-03-31T10:39:55;98379.63;;;23.19;43.80
12215;BME280;6170;42.206;24.142;2023-03-31T10:42:26;98387.59;;;23.90;41.95
12215;BME280;6170;42.206;24.142;2023-03-31T10:45:10;98361.09;;;24.23;38.91
12215;BME280;6170;42.206;24.142;2023-03-31T10:47:39;98352.13;;;24.77;40.55
12215;BME280;6170;42.206;24.142;2023-03-31T10:50:13;98359.09;;;24.83;38.42
12215;BME280;6170;42.206;24.142;2023-03-31T10:52:44;98339.94;;;24.97;38.74
12215;BME280;6170;42.206;24.142;2023-03-31T10:55:13;98338.88;;;25.20;37.22
12215;BME280;6170;42.206;24.142;2023-03-31T10:57:50;98342.25;;;25.53;38.41
12215;BME280;6170;42.206;24.142;2023-03-31T11:00:26;98335.94;;;25.88;36.27
12215;BME280;6170;42.206;24.142;2023-03-31T11:03:34;98317.00;;;24.25;37.57
12215;BME280;6170;42.206;24.142;2023-03-31T11:06:09;98329.38;;;24.36;37.59
12215;BME280;6170;42.206;24.142;2023-03-31T11:08:48;98296.94;;;23.97;39.39
12215;BME280;6170;42.206;24.142;2023-03-31T11:11:52;98310.91;;;24.55;38.01
12215;BME280;6170;42.206;24.142;2023-03-31T11:14:31;98320.47;;;23.98;38.51
12215;BME280;6170;42.206;24.142;2023-03-31T11:17:11;98293.00;;;23.70;38.51
12215;BME280;6170;42.206;24.142;2023-03-31T11:19:50;98302.50;;;24.24;38.51
12215;BME280;6170;42.206;24.142;2023-03-31T11:22:24;98305.63;;;23.99;38.85
12215;BME280;6170;42.206;24.142;2023-03-31T11:25:20;98342.19;;;23.57;38.00
12215;BME280;6170;42.206;24.142;2023-03-31T11:28:10;98292.53;;;23.31;39.70
12215;BME280;6170;42.206;24.142;2023-03-31T11:30:48;98278.72;;;22.61;40.19
12215;BME280;6170;42.206;24.142;2023-03-31T11:33:39;98280.06;;;22.88;39.78
12215;BME280;6170;42.206;24.142;2023-03-31T11:36:30;98266.25;;;22.79;38.82
12215;BME280;6170;42.206;24.142;2023-03-31T11:39:21;98301.75;;;23.35;40.14
12215;BME280;6170;42.206;24.142;2023-03-31T11:41:55;98270.38;;;22.95;39.43
12215;BME280;6170;42.206;24.142;2023-03-31T11:44:26;98256.66;;;23.00;39.21
12215;BME280;6170;42.206;24.142;2023-03-31T11:46:59;98266.97;;;23.41;39.27
12215;BME280;6170;42.206;24.142;2023-03-31T11:49:29;98268.22;;;23.48;38.43
12215;BME280;6170;42.206;24.142;2023-03-31T11:52:05;98255.38;;;22.93;38.29
12215;BME280;6170;42.206;24.142;2023-03-31T11:54:37;98245.25;;;22.93;39.23
12215;BME280;6170;42.206;24.142;2023-03-31T11:57:11;98245.38;;;22.64;38.56
12215;BME280;6170;42.206;24.142;2023-03-31T11:59:41;98248.47;;;22.34;38.90
12215;BME280;6170;42.206;24.142;2023-03-31T12:02:15;98242.84;;;22.02;40.10
12215;BME280;6170;42.206;24.142;2023-03-31T12:04:46;98273.75;;;22.21;40.04
12215;BME280;6170;42.206;24.142;2023-03-31T12:07:22;98231.88;;;22.30;39.93
12215;BME280;6170;42.206;24.142;2023-03-31T12:09:54;98238.69;;;21.80;40.19
12215;BME280;6170;42.206;24.142;2023-03-31T12:12:32;98249.94;;;21.69;40.82
12215;BME280;6170;42.206;24.142;2023-03-31T12:15:09;98245.13;;;21.61;40.23
12215;BME280;6170;42.206;24.142;2023-03-31T12:17:42;98237.38;;;22.02;40.57
12215;BME280;6170;42.206;24.142;2023-03-31T12:20:24;98235.53;;;21.68;40.42
12215;BME280;6170;42.206;24.142;2023-03-31T12:22:55;98219.03;;;21.55;40.18
12215;BME280;6170;42.206;24.142;2023-03-31T12:25:23;98231.97;;;21.39;40.34
12215;BME280;6170;42.206;24.142;2023-03-31T12:27:52;98224.94;;;21.33;40.80
12215;BME280;6170;42.206;24.142;2023-03-31T12:30:25;98226.47;;;21.44;40.78
12215;BME280;6170;42.206;24.142;2023-03-31T12:32:58;98217.88;;;20.88;41.14
12215;BME280;6170;42.206;24.142;2023-03-31T12:35:33;98218.44;;;20.85;40.77
12215;BME280;6170;42.206;24.142;2023-03-31T12:38:13;98252.78;;;21.25;40.69
12215;BME280;6170;42.206;24.142;2023-03-31T12:40:50;98206.97;;;20.93;41.52
12215;BME280;6170;42.206;24.142;2023-03-31T12:46:49;98209.81;;;21.12;41.44
12215;BME280;6170;42.206;24.142;2023-03-31T12:49:31;98186.78;;;20.94;41.42
12215;BME280;6170;42.206;24.142;2023-03-31T12:52:03;98190.34;;;20.89;41.38
12215;BME280;6170;42.206;24.142;2023-03-31T12:54:47;98219.66;;;21.02;41.13
12215;BME280;6170;42.206;24.142;2023-03-31T12:57:20;98186.97;;;21.02;41.21
12215;BME280;6170;42.206;24.142;2023-03-31T13:00:15;98185.91;;;21.03;40.46
12215;BME280;6170;42.206;24.142;2023-03-31T13:02:45;98181.97;;;20.81;41.60
12215;BME280;6170;42.206;24.142;2023-03-31T13:05:45;98224.78;;;21.48;39.94
12215;BME280;6170;42.206;24.142;2023-03-31T13:08:50;98222.59;;;21.50;40.29
12215;BME280;6170;42.206;24.142;2023-03-31T13:11:18;98167.91;;;21.41;40.73
12215;BME280;6170;42.206;24.142;2023-03-31T13:13:57;98182.84;;;21.44;40.76
12215;BME280;6170;42.206;24.142;2023-03-31T13:16:25;98173.50;;;21.79;39.66
12215;BME280;6170;42.206;24.142;2023-03-31T13:18:53;98163.91;;;21.29;40.32
12215;BME280;6170;42.206;24.142;2023-03-31T13:21:22;98170.53;;;21.23;40.96
12215;BME280;6170;42.206;24.142;2023-03-31T13:23:50;98173.69;;;21.01;40.20
12215;BME280;6170;42.206;24.142;2023-03-31T13:26:38;98151.47;;;21.46;39.90
12215;BME280;6170;42.206;24.142;2023-03-31T13:29:18;98136.00;;;21.13;40.01
12215;BME280;6170;42.206;24.142;2023-03-31T13:32:17;98137.78;;;21.28;40.96
12215;BME280;6170;42.206;24.142;2023-03-31T13:34:49;98142.66;;;21.31;41.52
12215;BME280;6170;42.206;24.142;2023-03-31T13:37:22;98178.94;;;22.08;41.62
12215;BME280;6170;42.206;24.142;2023-03-31T13:40:06;98116.94;;;21.66;39.62
12215;BME280;6170;42.206;24.142;2023-03-31T13:45:47;98126.94;;;22.18;39.96
12215;BME280;6170;42.206;24.142;2023-03-31T13:48:48;98116.09;;;22.74;39.17
12215;BME280;6170;42.206;24.142;2023-03-31T13:51:25;98107.13;;;22.87;39.45